Wimberley, Texas
Current Conditions -  °F | °C
As of 10:55 AM on Tuesday 21 Oct 2014 (Local Time) from KHYI Reporting Station
Clear Clear  
Wind Chill: 75°   Ceiling: Unl
Heat Index: 75°   Visibility: 10mi
Dew Point: 55°   Wind: 6mph
Humidity: 50%   Direction: 50°NE
Pressure: 30.1"   Gusts: NA
Location:  29.99°N, 98.1°W
Report Text: KHYI 211555Z 05005KT 10SM CLR 24/13 A3010
Loading
Personal Weather Stations






























Interactive Weather Map
Tropical Storm Tracking
New forecast layout! Learn more

10-Day Weather Forecast

Advertisements
Track Severe Weather on mobile